Time;durP1;ratioP1;P1;durP2;ratioP2;P2;SDS_P1;SDS_P2;PMS_P1;PMS_P2;Temp;Humidity;BMP_temperature;BMP_pressure;BME280_temperature;BME280_humidity;BME280_pressure;Samples;Min_cycle;Max_cycle;Signal;HPM_P1;HPM_P2
2021/03/18 00:01:39;;;;;;;4.72;3.60;;;;;;;8.51;59.82;101471.28;4916619;28;97863;-63
2021/03/18 00:04:09;;;;;;;5.60;4.00;;;;;;;8.54;59.83;101467.31;4921878;28;98290;-59
2021/03/18 00:06:36;;;;;;;6.20;3.97;;;;;;;8.54;59.74;101461.94;4951606;28;101960;-63
2021/03/18 00:09:08;;;;;;;4.93;3.80;;;;;;;8.52;59.79;101455.97;4922636;28;98174;-63
2021/03/18 00:11:34;;;;;;;5.18;3.83;;;;;;;8.55;59.82;101464.38;4915131;28;97691;-63
2021/03/18 00:14:00;;;;;;;4.75;3.90;;;;;;;8.54;59.93;101456.56;4917592;28;99548;-59
2021/03/18 00:16:26;;;;;;;4.60;3.60;;;;;;;8.56;59.24;101455.28;4918579;28;110608;-59
2021/03/18 00:18:54;;;;;;;4.70;3.17;;;;;;;8.57;59.34;101461.50;4920925;28;98305;-60
2021/03/18 00:21:21;;;;;;;3.97;3.15;;;;;;;8.57;59.73;101456.13;4921208;28;97891;-59
2021/03/18 00:23:48;;;;;;;3.88;3.17;;;;;;;8.59;59.62;101459.38;4912998;28;98499;-59
2021/03/18 00:26:14;;;;;;;4.68;3.00;;;;;;;8.58;59.51;101452.38;4906934;28;98904;-63
2021/03/18 00:28:40;;;;;;;3.97;2.83;;;;;;;8.58;59.69;101453.19;4907896;28;110129;-63
2021/03/18 00:31:07;;;;;;;4.72;2.83;;;;;;;8.59;59.67;101454.81;4901770;28;110948;-59
2021/03/18 00:33:33;;;;;;;3.92;3.03;;;;;;;8.59;59.25;101451.31;4901765;28;98694;-64
2021/03/18 00:35:59;;;;;;;3.50;2.75;;;;;;;8.57;59.23;101459.63;4901842;28;98243;-63
2021/03/18 00:38:26;;;;;;;3.13;2.30;;;;;;;8.58;59.49;101449.69;4901902;28;97796;-63
2021/03/18 00:41:04;;;;;;;3.50;2.90;;;;;;;8.56;59.80;101455.28;4901873;28;97805;-59
2021/03/18 00:43:31;;;;;;;3.47;2.47;;;;;;;8.56;59.35;101451.78;4941733;28;98185;-59
2021/03/18 00:45:57;;;;;;;3.38;2.20;;;;;;;8.55;59.82;101448.25;4920930;28;98272;-59
2021/03/18 00:48:23;;;;;;;3.13;2.40;;;;;;;8.53;59.08;101450.38;4922332;28;98163;-59
2021/03/18 00:50:57;;;;;;;3.03;2.35;;;;;;;8.49;59.86;101451.03;4921618;28;97609;-63
2021/03/18 00:53:27;;;;;;;3.47;2.63;;;;;;;8.46;59.51;101457.72;4920317;28;98662;-63
2021/03/18 00:55:54;;;;;;;2.80;2.15;;;;;;;8.44;59.70;101457.09;4920500;28;102463;-63
2021/03/18 00:58:20;;;;;;;3.15;2.28;;;;;;;8.44;59.76;101454.41;4920233;28;97997;-63
2021/03/18 01:00:58;;;;;;;2.90;2.22;;;;;;;8.40;59.62;101450.56;4922352;28;118747;-59
2021/03/18 01:03:27;;;;;;;3.95;2.60;;;;;;;8.42;59.85;101447.66;4923763;28;111653;-59
2021/03/18 01:06:04;;;;;;;3.70;2.58;;;;;;;8.39;59.98;101440.88;4922591;28;98872;-63
2021/03/18 01:08:30;;;;;;;3.80;2.13;;;;;;;8.41;59.22;101446.84;4924091;28;98572;-63
2021/03/18 01:11:17;;;;;;;3.45;2.40;;;;;;;8.37;59.61;101442.97;4924041;28;97826;-59
2021/03/18 01:13:46;;;;;;;3.05;2.30;;;;;;;8.36;59.90;101442.09;4923860;28;98323;-59
2021/03/18 01:16:20;;;;;;;2.63;2.20;;;;;;;8.32;59.68;101440.91;4924688;28;98421;-59
2021/03/18 01:18:50;;;;;;;2.80;2.25;;;;;;;8.30;59.78;101436.84;4922008;28;98259;-63
2021/03/18 01:21:17;;;;;;;2.88;2.20;;;;;;;8.31;59.71;101438.47;4921854;28;107748;-59
2021/03/18 01:23:43;;;;;;;2.35;2.00;;;;;;;8.28;59.78;101431.69;4923666;28;98972;-59
2021/03/18 01:26:10;;;;;;;2.97;2.50;;;;;;;8.30;59.33;101426.09;4923961;28;107792;-63
2021/03/18 01:28:36;;;;;;;3.10;2.15;;;;;;;8.31;59.48;101431.22;4922164;28;98089;-63
2021/03/18 01:31:04;;;;;;;3.10;2.50;;;;;;;8.29;59.43;101427.13;4906064;28;98031;-59
2021/03/18 01:33:30;;;;;;;3.25;2.25;;;;;;;8.29;59.76;101429.81;4921201;28;127997;-64
2021/03/18 01:35:58;;;;;;;2.90;2.25;;;;;;;8.28;59.25;101426.31;4904459;28;128074;-59
2021/03/18 01:38:24;;;;;;;3.45;2.70;;;;;;;8.27;59.18;101421.19;4906158;28;98081;-59
2021/03/18 01:40:50;;;;;;;2.78;2.30;;;;;;;8.24;59.57;101424.31;4923022;28;123122;-59
2021/03/18 01:43:16;;;;;;;3.10;2.50;;;;;;;8.24;59.47;101422.44;4922585;28;125481;-59
2021/03/18 01:45:42;;;;;;;2.70;2.38;;;;;;;8.23;59.41;101420.81;4923489;28;102370;-59
2021/03/18 01:48:09;;;;;;;3.22;2.47;;;;;;;8.22;59.26;101419.19;4937039;28;127614;-59
2021/03/18 01:50:37;;;;;;;3.25;2.25;;;;;;;8.20;59.35;101421.25;4921712;28;97858;-63
2021/03/18 01:53:03;;;;;;;3.10;2.42;;;;;;;8.19;58.72;101413.44;4922674;28;102104;-63
2021/03/18 01:55:41;;;;;;;3.05;2.35;;;;;;;8.18;59.23;101430.63;4923618;28;99138;-59
2021/03/18 01:58:08;;;;;;;2.65;2.30;;;;;;;8.18;59.32;101414.50;4923956;28;98113;-64
2021/03/18 02:00:35;;;;;;;3.50;2.67;;;;;;;8.17;58.87;101419.03;4938128;28;98189;-63
2021/03/18 02:03:01;;;;;;;4.03;2.80;;;;;;;8.16;59.17;101414.72;4922351;28;119878;-63
2021/03/18 02:05:28;;;;;;;3.03;2.40;;;;;;;8.15;59.21;101423.81;4923833;28;99067;-63
2021/03/18 02:07:54;;;;;;;3.00;2.30;;;;;;;8.15;59.15;101421.13;4922728;28;97847;-59
2021/03/18 02:10:26;;;;;;;3.05;2.70;;;;;;;8.15;59.05;101421.13;4922664;28;97885;-59
2021/03/18 02:12:52;;;;;;;2.95;2.42;;;;;;;8.16;59.04;101425.44;4922828;28;99505;-59
2021/03/18 02:15:20;;;;;;;3.63;2.90;;;;;;;8.18;59.00;101422.56;4922208;28;119653;-59
2021/03/18 02:18:15;;;;;;;3.40;2.83;;;;;;;8.16;58.99;101425.44;4904793;28;103661;-59
2021/03/18 02:21:28;;;;;;;2.97;2.55;;;;;;;8.16;58.89;101425.44;4922114;28;98012;-59
2021/03/18 02:24:27;;;;;;;3.28;2.60;;;;;;;8.16;58.89;101430.81;4923149;28;98385;-58
2021/03/18 02:27:14;;;;;;;3.72;2.55;;;;;;;8.15;58.95;101421.13;4920291;28;98726;-59
2021/03/18 02:30:17;;;;;;;3.28;2.70;;;;;;;8.15;59.14;101423.81;4922301;28;98939;-59
2021/03/18 02:33:04;;;;;;;3.00;2.70;;;;;;;8.17;59.02;101412.84;4922980;28;99435;-63
2021/03/18 02:36:04;;;;;;;2.92;2.40;;;;;;;8.16;59.12;101420.06;4921444;28;98354;-63
2021/03/18 02:38:44;;;;;;;2.90;2.60;;;;;;;8.15;59.32;101418.44;4922068;28;98805;-59
2021/03/18 02:41:20;;;;;;;3.60;2.75;;;;;;;8.18;59.15;101420.69;4905292;28;118538;-63
2021/03/18 02:43:59;;;;;;;3.05;2.70;;;;;;;8.21;58.78;101422.88;4872801;28;98031;-59
2021/03/18 02:46:25;;;;;;;3.13;2.63;;;;;;;8.23;58.52;101420.00;4921182;28;101914;-63
2021/03/18 02:48:53;;;;;;;3.83;2.85;;;;;;;8.24;58.97;101421.63;4887620;28;125890;-59
2021/03/18 02:51:20;;;;;;;3.90;3.28;;;;;;;8.27;59.00;101432.75;4920251;28;127241;-59
2021/03/18 02:53:47;;;;;;;6.03;3.55;;;;;;;8.28;58.78;101430.88;4936461;28;123448;-63
2021/03/18 02:56:18;;;;;;;4.72;3.45;;;;;;;8.30;58.95;101428.78;4920253;28;98518;-63
2021/03/18 02:58:45;;;;;;;5.40;3.93;;;;;;;8.30;59.01;101428.78;4904223;28;122669;-59
2021/03/18 03:01:12;;;;;;;5.00;4.03;;;;;;;8.29;58.68;101422.59;4920474;28;98497;-59
2021/03/18 03:03:38;;;;;;;5.07;4.18;;;;;;;8.29;58.51;101424.44;4920726;28;97721;-63
2021/03/18 03:06:05;;;;;;;5.32;4.57;;;;;;;8.30;58.83;101418.84;4935920;28;126477;-63
2021/03/18 03:08:31;;;;;;;6.40;4.53;;;;;;;8.31;58.88;101416.97;4953809;28;98460;-63
2021/03/18 03:10:59;;;;;;;5.95;4.82;;;;;;;8.33;58.47;101417.56;4920420;28;98229;-63
2021/03/18 03:13:31;;;;;;;5.90;4.50;;;;;;;8.32;58.73;101422.13;4903841;28;117160;-59
2021/03/18 03:16:01;;;;;;;7.28;5.25;;;;;;;8.33;58.43;101426.47;4951841;28;115619;-63
2021/03/18 03:18:27;;;;;;;6.38;5.07;;;;;;;8.35;58.58;101431.59;4920829;28;100665;-63
2021/03/18 03:20:53;;;;;;;7.40;5.53;;;;;;;8.34;58.86;101425.41;4951299;28;127232;-59
2021/03/18 03:23:21;;;;;;;6.45;5.38;;;;;;;8.34;58.85;101425.41;4920770;28;113526;-59
2021/03/18 03:25:47;;;;;;;6.50;5.13;;;;;;;8.35;58.59;101429.72;4921210;28;123987;-59
2021/03/18 03:28:13;;;;;;;7.40;5.55;;;;;;;8.36;58.82;101423.28;4919594;28;98157;-59
2021/03/18 03:30:39;;;;;;;7.50;5.43;;;;;;;8.36;58.86;101425.16;4936418;28;117992;-63
2021/03/18 03:33:06;;;;;;;6.75;5.40;;;;;;;8.34;58.62;101424.59;4920817;28;121580;-63
2021/03/18 03:35:34;;;;;;;8.50;5.95;;;;;;;8.35;58.72;101420.84;4904631;28;98664;-59
2021/03/18 03:38:00;;;;;;;7.38;5.82;;;;;;;8.37;58.71;101426.84;4921348;28;98780;-59
2021/03/18 03:40:26;;;;;;;7.53;6.00;;;;;;;8.36;58.79;101425.97;4919420;28;122096;-63
2021/03/18 03:42:53;;;;;;;8.25;6.00;;;;;;;8.35;58.76;101424.34;4953220;28;98084;-59
2021/03/18 03:45:19;;;;;;;7.38;6.00;;;;;;;8.34;58.34;101428.09;4919612;28;98491;-59
2021/03/18 03:47:45;;;;;;;7.65;6.28;;;;;;;8.35;58.84;101429.72;4919107;28;127938;-63
2021/03/18 03:50:16;;;;;;;7.22;6.00;;;;;;;8.34;58.43;101424.59;4903099;28;97859;-59
2021/03/18 03:53:01;;;;;;;7.90;6.00;;;;;;;8.34;58.78;101417.34;4903971;28;97991;-59
2021/03/18 03:55:36;;;;;;;7.68;6.28;;;;;;;8.34;58.87;101422.72;4920139;28;98668;-59
2021/03/18 03:58:46;;;;;;;8.68;5.90;;;;;;;8.32;58.70;101423.97;4922670;28;97915;-59
2021/03/18 04:01:35;;;;;;;8.68;6.38;;;;;;;8.30;58.88;101421.53;4919535;28;98095;-59
2021/03/18 04:04:30;;;;;;;8.70;6.50;;;;;;;8.30;58.72;101421.53;4918893;28;115016;-63
2021/03/18 04:07:01;;;;;;;8.18;6.40;;;;;;;8.34;58.90;101417.34;4919437;28;98197;-63
2021/03/18 04:09:28;;;;;;;8.35;6.63;;;;;;;8.39;58.17;101418.56;4904116;28;100029;-63
2021/03/18 04:11:54;;;;;;;8.55;6.40;;;;;;;8.41;58.55;101419.97;4919009;28;120049;-59
2021/03/18 04:14:24;;;;;;;8.82;6.75;;;;;;;8.46;58.31;101425.47;4921652;28;109639;-63
2021/03/18 04:16:51;;;;;;;7.90;5.72;;;;;;;8.49;58.29;101429.53;4935099;28;122583;-64
2021/03/18 04:19:18;;;;;;;8.95;6.63;;;;;;;8.50;58.12;101423.16;4902806;28;99635;-63
2021/03/18 04:21:46;;;;;;;11.23;7.25;;;;;;;8.51;57.77;101414.84;4919159;28;109635;-63
2021/03/18 04:24:12;;;;;;;9.02;6.85;;;;;;;8.50;58.11;101417.78;4921491;28;97906;-63
2021/03/18 04:26:39;;;;;;;9.90;7.60;;;;;;;8.52;58.37;101431.78;4902496;28;118032;-59
2021/03/18 04:29:05;;;;;;;9.02;7.07;;;;;;;8.51;57.87;101430.16;4936171;28;99160;-59
2021/03/18 04:31:33;;;;;;;11.05;7.22;;;;;;;8.50;57.92;101432.03;4935216;28;119314;-63
2021/03/18 04:34:00;;;;;;;9.73;7.28;;;;;;;8.51;58.14;101430.16;4935807;28;98114;-63
2021/03/18 04:36:29;;;;;;;10.32;6.97;;;;;;;8.51;57.95;101436.34;4923183;28;98159;-63
2021/03/18 04:38:56;;;;;;;10.85;7.78;;;;;;;8.50;57.99;101433.91;4924414;28;100138;-63
2021/03/18 04:41:22;;;;;;;10.57;7.47;;;;;;;8.53;57.68;101436.94;4922162;28;117886;-59
2021/03/18 04:43:48;;;;;;;10.80;7.28;;;;;;;8.51;57.92;101436.34;4922250;28;120727;-63
2021/03/18 04:46:14;;;;;;;10.25;7.50;;;;;;;8.51;57.78;101433.66;4923711;28;122123;-63
2021/03/18 04:48:40;;;;;;;11.30;8.05;;;;;;;8.50;58.11;101433.91;4924868;28;98970;-63
2021/03/18 04:51:08;;;;;;;10.38;7.43;;;;;;;8.49;57.90;101437.59;4921673;28;118825;-59
2021/03/18 04:53:35;;;;;;;9.63;7.30;;;;;;;8.50;58.18;101426.66;4922390;28;98032;-59
2021/03/18 04:56:04;;;;;;;9.98;7.55;;;;;;;8.49;57.99;101432.22;4905973;28;99497;-63
2021/03/18 04:58:30;;;;;;;10.10;7.90;;;;;;;8.48;58.33;101441.34;4905463;28;116501;-59
2021/03/18 05:00:57;;;;;;;10.15;7.63;;;;;;;8.50;58.26;101437.41;4922026;28;114578;-63
2021/03/18 05:03:23;;;;;;;9.32;7.53;;;;;;;8.51;57.95;101435.53;4907360;28;97877;-63
2021/03/18 05:05:51;;;;;;;9.85;7.60;;;;;;;8.51;58.10;101440.91;4923464;28;128157;-63
2021/03/18 05:08:18;;;;;;;10.38;7.93;;;;;;;8.50;57.71;101439.28;4905847;28;98786;-59
2021/03/18 05:10:44;;;;;;;9.68;7.47;;;;;;;8.50;58.32;101440.09;4922738;28;98229;-59
2021/03/18 05:13:10;;;;;;;9.88;7.88;;;;;;;8.50;58.23;101431.22;4938416;28;110290;-63
2021/03/18 05:15:37;;;;;;;9.45;7.43;;;;;;;8.51;57.87;101435.53;4936443;28;98504;-64
2021/03/18 05:18:10;;;;;;;9.65;7.25;;;;;;;8.46;57.81;101428.16;4951200;28;123378;-59
2021/03/18 05:20:36;;;;;;;9.27;7.18;;;;;;;8.48;57.97;101433.28;4921471;28;97853;-59
2021/03/18 05:23:03;;;;;;;9.30;7.68;;;;;;;8.47;58.02;101426.28;4902594;28;98182;-63
2021/03/18 05:25:30;;;;;;;9.98;7.50;;;;;;;8.47;58.09;101434.34;4921100;28;98831;-63
2021/03/18 05:27:57;;;;;;;10.05;7.00;;;;;;;8.51;57.97;101430.97;4920360;28;98670;-63
2021/03/18 05:30:27;;;;;;;9.20;7.55;;;;;;;8.47;57.81;101423.59;4902035;28;100066;-59
2021/03/18 05:32:54;;;;;;;9.77;7.85;;;;;;;8.48;57.65;101422.53;4920634;28;97826;-63
2021/03/18 05:35:20;;;;;;;8.63;7.38;;;;;;;8.41;57.98;101424.50;4919893;28;98555;-59
2021/03/18 05:37:46;;;;;;;8.55;7.00;;;;;;;8.37;58.09;101426.84;4918475;28;129595;-63
2021/03/18 05:40:13;;;;;;;9.10;7.65;;;;;;;8.33;57.62;101429.16;4917294;28;120012;-63
2021/03/18 05:42:40;;;;;;;9.10;7.75;;;;;;;8.28;58.10;101420.94;4920668;28;98511;-63
2021/03/18 05:45:11;;;;;;;9.30;7.32;;;;;;;8.27;57.86;101434.59;4920984;28;98368;-59
2021/03/18 05:47:37;;;;;;;8.30;6.80;;;;;;;8.25;57.89;101424.09;4918343;28;123836;-63
2021/03/18 05:50:06;;;;;;;8.70;7.00;;;;;;;8.20;58.30;101433.88;4919461;28;107485;-63
2021/03/18 05:52:32;;;;;;;7.82;6.80;;;;;;;8.18;57.87;101434.13;4919754;28;106565;-59
2021/03/18 05:54:58;;;;;;;8.90;7.15;;;;;;;8.13;58.09;101433.97;4918443;28;100641;-59
2021/03/18 05:57:25;;;;;;;8.48;6.88;;;;;;;8.09;58.01;101433.59;4919633;28;111951;-59
2021/03/18 05:59:51;;;;;;;8.27;6.85;;;;;;;8.08;58.05;101434.66;4920281;28;98292;-59
2021/03/18 06:02:17;;;;;;;8.43;6.53;;;;;;;8.09;58.27;101436.28;4901970;28;98060;-63
2021/03/18 06:04:43;;;;;;;8.27;6.82;;;;;;;8.04;58.12;101432.66;4917717;28;98540;-63
2021/03/18 06:07:09;;;;;;;8.48;7.15;;;;;;;8.09;58.00;101435.47;4918446;28;98111;-63
2021/03/18 06:09:36;;;;;;;8.68;7.18;;;;;;;8.10;58.18;101437.94;4919306;28;128201;-59
2021/03/18 06:12:03;;;;;;;7.53;6.40;;;;;;;8.10;58.18;101434.44;4919388;28;97776;-59
2021/03/18 06:14:29;;;;;;;7.95;7.10;;;;;;;8.10;58.05;101437.13;4917619;28;99030;-63
2021/03/18 06:16:56;;;;;;;8.73;6.95;;;;;;;8.15;57.83;101439.13;4917560;28;128889;-63
2021/03/18 06:19:22;;;;;;;9.00;7.13;;;;;;;8.15;58.54;101428.38;4934198;28;110402;-63
2021/03/18 06:21:56;;;;;;;7.93;6.63;;;;;;;8.19;57.91;101435.75;4917975;28;120212;-59
2021/03/18 06:24:24;;;;;;;8.73;7.47;;;;;;;8.19;58.09;101438.44;4920723;28;98825;-59
2021/03/18 06:26:50;;;;;;;8.68;6.63;;;;;;;8.25;58.12;101440.22;4920125;28;99972;-59
2021/03/18 06:29:38;;;;;;;8.32;6.80;;;;;;;8.18;57.96;101444.03;4919393;28;99173;-63
2021/03/18 06:32:13;;;;;;;8.60;7.15;;;;;;;8.25;57.99;101434.00;4919319;28;98269;-63
2021/03/18 06:34:40;;;;;;;9.25;7.47;;;;;;;8.29;58.00;101438.72;4919707;28;98009;-63
2021/03/18 06:37:41;;;;;;;9.93;7.57;;;;;;;8.32;58.05;101435.53;4919106;28;98730;-59
2021/03/18 06:40:20;;;;;;;9.13;7.35;;;;;;;8.42;57.64;101435.03;4918892;28;98503;-63
2021/03/18 06:43:02;;;;;;;9.68;7.10;;;;;;;8.56;57.22;101433.78;4919535;28;97891;-63
2021/03/18 06:45:30;;;;;;;10.00;7.95;;;;;;;8.62;57.37;101442.81;4918923;28;98492;-63
2021/03/18 06:48:04;;;;;;;10.60;7.90;;;;;;;8.68;57.14;101436.47;4918325;28;98942;-63
2021/03/18 06:50:39;;;;;;;9.63;7.53;;;;;;;8.78;57.09;101439.44;4949924;28;98222;-59
2021/03/18 06:53:19;;;;;;;10.25;8.05;;;;;;;8.85;56.97;101440.16;4901797;28;98165;-59
2021/03/18 06:55:45;;;;;;;9.52;7.53;;;;;;;8.85;56.46;101442.03;4919031;28;103911;-59
2021/03/18 06:58:27;;;;;;;10.98;8.35;;;;;;;8.82;56.83;101435.22;4917836;28;111838;-59
2021/03/18 07:00:59;;;;;;;11.00;8.18;;;;;;;8.87;57.21;101433.72;4949458;28;98288;-63
2021/03/18 07:03:37;;;;;;;10.32;8.45;;;;;;;8.83;57.22;101427.97;4916737;28;98017;-59
2021/03/18 07:06:08;;;;;;;11.18;8.00;;;;;;;8.85;57.25;101433.97;4917634;28;99142;-63
2021/03/18 07:08:39;;;;;;;10.05;7.85;;;;;;;8.88;57.61;101430.78;4917912;28;117167;-63
2021/03/18 07:11:22;;;;;;;11.25;8.32;;;;;;;8.89;57.96;101431.63;4919945;28;98069;-59
2021/03/18 07:13:49;;;;;;;11.25;8.45;;;;;;;8.86;57.80;101432.91;4916503;28;98113;-59
2021/03/18 07:16:15;;;;;;;10.90;8.18;;;;;;;8.83;57.63;101427.97;4899663;28;119544;-58
2021/03/18 07:18:41;;;;;;;10.20;8.35;;;;;;;8.84;58.13;101426.91;4918184;28;98642;-63
2021/03/18 07:21:13;;;;;;;11.43;8.68;;;;;;;8.82;58.27;101426.34;4918356;28;98251;-63
2021/03/18 07:23:43;;;;;;;11.85;9.32;;;;;;;8.77;58.38;101420.84;4919180;28;97759;-63
2021/03/18 07:26:22;;;;;;;11.70;9.02;;;;;;;8.84;58.16;101416.16;4917331;28;98629;-59
2021/03/18 07:29:24;;;;;;;12.40;9.32;;;;;;;8.98;58.62;101420.28;4918129;28;120587;-59
2021/03/18 07:31:51;;;;;;;13.80;9.98;;;;;;;9.03;58.33;101424.94;4917800;28;98839;-63
2021/03/18 07:34:18;;;;;;;14.43;10.00;;;;;;;9.03;58.19;101417.69;4919347;28;97866;-59
2021/03/18 07:36:46;;;;;;;14.48;10.18;;;;;;;9.06;58.35;101419.94;4918115;28;98423;-64
2021/03/18 07:39:12;;;;;;;14.52;9.43;;;;;;;9.02;58.33;101415.25;4916386;28;99033;-63
2021/03/18 07:41:38;;;;;;;12.48;9.75;;;;;;;8.96;58.86;101421.56;4917849;28;98274;-63
2021/03/18 07:44:06;;;;;;;12.43;9.43;;;;;;;8.95;58.74;101412.66;4917492;28;120976;-63
2021/03/18 07:46:34;;;;;;;12.80;9.70;;;;;;;9.00;59.18;101420.03;4917517;28;98715;-63
2021/03/18 07:49:10;;;;;;;10.70;9.13;;;;;;;8.99;58.79;101413.84;4916652;28;99182;-59
2021/03/18 07:51:37;;;;;;;12.27;9.48;;;;;;;8.94;59.03;101408.34;4916225;28;98131;-64
2021/03/18 07:54:04;;;;;;;11.90;9.43;;;;;;;8.92;59.23;101413.16;4901069;28;97827;-59
2021/03/18 07:56:30;;;;;;;11.75;9.48;;;;;;;8.97;59.03;101410.56;4899148;28;98669;-59
2021/03/18 07:58:56;;;;;;;11.15;9.02;;;;;;;8.99;58.62;101416.53;4915407;28;122026;-63
2021/03/18 08:01:31;;;;;;;10.70;9.10;;;;;;;8.94;58.92;101413.72;4915285;28;98365;-59
2021/03/18 08:04:06;;;;;;;11.18;9.30;;;;;;;8.98;59.07;101412.22;4918547;28;97905;-63
2021/03/18 08:06:41;;;;;;;10.27;8.73;;;;;;;9.16;58.81;101408.59;4917461;28;98482;-59
2021/03/18 08:09:12;;;;;;;10.57;8.82;;;;;;;9.26;57.94;101408.00;4910385;28;97766;-59
2021/03/18 08:11:39;;;;;;;11.38;9.05;;;;;;;9.24;58.62;101408.22;4917838;28;99829;-59
2021/03/18 08:14:08;;;;;;;10.05;8.82;;;;;;;9.16;58.83;101407.78;4917475;28;97846;-59
2021/03/18 08:16:35;;;;;;;9.75;8.68;;;;;;;9.07;59.17;101408.09;4917148;28;100468;-59
2021/03/18 08:19:02;;;;;;;9.65;8.20;;;;;;;9.10;58.79;101413.03;4916787;28;115472;-59
2021/03/18 08:21:36;;;;;;;10.38;8.43;;;;;;;9.30;58.79;101406.47;4918220;28;98554;-59
2021/03/18 08:24:06;;;;;;;9.95;8.40;;;;;;;9.44;59.06;101402.47;4917472;28;97799;-63
2021/03/18 08:26:43;;;;;;;9.55;7.95;;;;;;;9.79;58.00;101397.00;4910939;28;98961;-59
2021/03/18 08:29:28;;;;;;;9.80;8.75;;;;;;;9.98;57.12;101389.56;4917206;28;99101;-63
2021/03/18 08:32:00;;;;;;;9.02;7.80;;;;;;;10.42;56.16;101389.81;4948314;28;98120;-59
2021/03/18 08:34:54;;;;;;;9.75;8.75;;;;;;;10.88;54.46;101387.84;4918118;28;97919;-63
2021/03/18 08:37:40;;;;;;;9.07;8.18;;;;;;;11.26;54.09;101384.34;4916944;28;98070;-63
2021/03/18 08:40:30;;;;;;;8.85;7.93;;;;;;;11.37;54.20;101389.88;4916801;28;98420;-59
2021/03/18 08:43:07;;;;;;;9.60;8.57;;;;;;;11.01;56.15;101392.91;4917209;28;98303;-59
2021/03/18 08:45:32;;;;;;;10.02;8.77;;;;;;;10.91;56.46;101392.75;4918287;28;97885;-63
2021/03/18 08:48:14;;;;;;;10.18;8.98;;;;;;;10.97;56.54;101388.25;4917118;28;98668;-61
2021/03/18 08:50:40;;;;;;;9.65;8.57;;;;;;;11.00;56.60;101388.56;4917883;28;98618;-64
2021/03/18 08:53:29;;;;;;;9.20;8.25;;;;;;;11.40;55.57;101389.38;4917155;28;98448;-60
2021/03/18 08:55:55;;;;;;;9.00;8.10;;;;;;;11.43;55.23;101383.47;4917068;28;98629;-59
2021/03/18 08:58:21;;;;;;;9.32;8.43;;;;;;;11.68;54.85;101383.78;4915900;28;128210;-64
2021/03/18 09:00:48;;;;;;;8.60;7.80;;;;;;;11.72;54.83;101379.50;4917844;28;98871;-60
2021/03/18 09:03:16;;;;;;;8.63;7.80;;;;;;;11.95;54.46;101380.34;4909123;28;98525;-60
2021/03/18 09:05:56;;;;;;;8.55;7.72;;;;;;;11.98;54.53;101375.22;4911150;28;98186;-59
2021/03/18 09:08:30;;;;;;;8.40;7.60;;;;;;;11.94;54.77;101362.47;4909217;28;98757;-59
2021/03/18 09:10:56;;;;;;;8.07;7.28;;;;;;;11.75;55.49;101365.50;4911414;28;98713;-64
2021/03/18 09:13:24;;;;;;;7.75;7.05;;;;;;;11.64;56.34;101362.94;4912724;28;104487;-64
2021/03/18 09:15:53;;;;;;;7.05;6.35;;;;;;;11.15;57.22;101352.06;4942622;28;99347;-59
2021/03/18 09:18:26;;;;;;;7.82;6.90;;;;;;;10.98;58.06;101349.41;4917352;28;98547;-64
2021/03/18 09:20:58;;;;;;;6.95;6.25;;;;;;;10.85;58.48;101349.78;4915106;28;98212;-59
2021/03/18 09:23:26;;;;;;;6.97;6.30;;;;;;;10.91;58.20;101351.47;4919055;28;98308;-63
2021/03/18 09:25:57;;;;;;;6.25;5.65;;;;;;;11.23;57.53;101346.22;4918861;28;116208;-64
2021/03/18 09:28:23;;;;;;;6.55;5.85;;;;;;;11.53;57.12;101343.09;4918232;28;97986;-63
2021/03/18 09:30:56;;;;;;;6.38;5.78;;;;;;;11.62;56.88;101349.69;4919995;28;98752;-59
2021/03/18 09:33:38;;;;;;;;;;;;;;;12.02;55.90;101343.94;4920674;28;101560;-63
2021/03/18 09:36:17;;;;;;;5.80;5.30;;;;;;;12.11;55.40;101349.69;4920185;28;98203;-63
2021/03/18 09:38:54;;;;;;;5.95;5.35;;;;;;;12.38;54.96;101340.72;4920230;28;99075;-63
2021/03/18 09:41:22;;;;;;;5.75;5.25;;;;;;;12.99;53.60;101341.97;4917820;28;124233;-64
2021/03/18 09:43:48;;;;;;;5.32;4.82;;;;;;;13.30;53.00;101336.72;4919550;28;98566;-59
2021/03/18 09:46:15;;;;;;;5.18;4.63;;;;;;;13.16;53.61;101336.34;4920639;28;97798;-59
2021/03/18 09:48:41;;;;;;;5.30;4.80;;;;;;;13.20;53.78;101342.91;4917522;28;119302;-59
2021/03/18 09:51:15;;;;;;;5.00;4.60;;;;;;;13.35;53.76;101338.63;4919775;28;98116;-64
2021/03/18 09:53:46;;;;;;;5.15;4.30;;;;;;;13.32;54.04;101344.56;4919943;28;98846;-63
2021/03/18 09:56:14;;;;;;;4.47;4.07;;;;;;;13.21;54.62;101338.28;4919690;28;97910;-63
2021/03/18 09:58:41;;;;;;;3.95;3.50;;;;;;;13.21;54.70;101330.97;4919645;28;111250;-60
2021/03/18 10:01:15;;;;;;;4.82;4.03;;;;;;;13.41;54.38;101322.16;4919495;28;118938;-59
2021/03/18 10:04:15;;;;;;;4.63;4.07;;;;;;;14.42;52.23;101326.13;4919143;28;98727;-64
2021/03/18 10:06:47;;;;;;;3.45;3.15;;;;;;;14.33;52.53;101319.59;4944284;28;97728;-64
2021/03/18 10:09:27;;;;;;;4.47;3.70;;;;;;;14.11;53.34;101325.28;4917685;28;99214;-60
2021/03/18 10:11:55;;;;;;;3.55;3.25;;;;;;;14.58;52.15;101326.09;4918620;28;99387;-60
2021/03/18 10:14:29;;;;;;;3.72;3.33;;;;;;;15.09;51.24;101318.69;4919255;28;98219;-60
2021/03/18 10:16:55;;;;;;;3.35;3.05;;;;;;;16.42;48.50;101312.44;4919181;28;98051;-64
2021/03/18 10:19:25;;;;;;;3.00;2.70;;;;;;;17.23;48.00;101302.63;4901170;28;98789;-60
2021/03/18 10:21:52;;;;;;;3.17;2.70;;;;;;;17.56;47.84;101300.81;4933499;28;98884;-64
2021/03/18 10:24:18;;;;;;;2.75;2.50;;;;;;;17.13;49.15;101302.72;4916982;28;124770;-64
2021/03/18 10:26:44;;;;;;;2.70;2.50;;;;;;;16.61;50.53;101310.63;4919542;28;97967;-64
2021/03/18 10:29:11;;;;;;;3.08;2.78;;;;;;;16.40;50.81;101298.31;4917140;28;99530;-64
2021/03/18 10:31:40;;;;;;;3.65;3.20;;;;;;;16.27;50.45;101312.56;4919309;28;116540;-60
2021/03/18 10:34:19;;;;;;;4.10;3.70;;;;;;;15.88;51.24;101303.38;4921531;28;98173;-60
2021/03/18 10:36:45;;;;;;;4.47;4.00;;;;;;;15.53;52.02;101308.97;4911801;28;97906;-60
2021/03/18 10:39:13;;;;;;;4.13;3.78;;;;;;;15.14;52.85;101306.97;4918169;28;126860;-60
2021/03/18 10:41:57;;;;;;;5.22;4.72;;;;;;;14.67;53.73;101303.59;4917705;28;127420;-64
2021/03/18 10:44:35;;;;;;;4.70;4.28;;;;;;;14.30;54.41;101313.88;4901560;28;98115;-59
2021/03/18 10:47:21;;;;;;;5.03;4.28;;;;;;;14.07;55.22;101307.94;4950191;28;97983;-64
2021/03/18 10:50:05;;;;;;;5.00;4.50;;;;;;;13.94;55.06;101309.25;4918585;28;98577;-60
2021/03/18 10:52:32;;;;;;;5.28;4.70;;;;;;;14.19;54.45;101310.38;4919064;28;98688;-60
2021/03/18 10:54:58;;;;;;;5.13;4.47;;;;;;;14.35;53.98;101305.78;4918653;28;122172;-64
2021/03/18 10:57:26;;;;;;;5.03;4.53;;;;;;;14.08;55.07;101306.03;4917487;28;111933;-60
2021/03/18 10:59:58;;;;;;;5.43;4.93;;;;;;;13.80;55.43;101305.47;4917865;28;120763;-64
2021/03/18 11:02:28;;;;;;;5.85;5.30;;;;;;;13.83;55.22;101299.50;4916760;28;100149;-63
2021/03/18 11:04:59;;;;;;;6.55;5.90;;;;;;;13.67;55.52;101293.22;4919281;28;98264;-63
2021/03/18 11:07:26;;;;;;;6.13;5.53;;;;;;;13.53;55.97;101294.84;4919436;28;98101;-63
2021/03/18 11:10:14;;;;;;;5.90;5.30;;;;;;;13.44;56.08;101285.59;4918746;28;98346;-59
2021/03/18 11:12:41;;;;;;;5.82;5.05;;;;;;;13.60;55.78;101289.19;4916244;28;116552;-59
2021/03/18 11:15:10;;;;;;;6.00;5.40;;;;;;;13.55;55.64;101291.84;4917838;28;112414;-64
2021/03/18 11:17:37;;;;;;;6.00;5.40;;;;;;;13.58;55.85;101281.31;4917021;28;117424;-59
2021/03/18 11:20:14;;;;;;;5.80;5.20;;;;;;;13.44;56.11;101283.72;4918430;28;102927;-63
2021/03/18 11:22:40;;;;;;;5.15;4.53;;;;;;;13.58;55.77;101275.88;4918877;28;99035;-64
2021/03/18 11:25:07;;;;;;;5.43;4.80;;;;;;;13.66;55.66;101267.22;4919256;28;110666;-64
2021/03/18 11:27:33;;;;;;;5.60;5.07;;;;;;;13.79;55.45;101267.78;4918852;28;98054;-59
2021/03/18 11:30:00;;;;;;;5.20;4.70;;;;;;;13.78;56.01;101261.56;4917996;28;116266;-60
2021/03/18 11:32:26;;;;;;;5.30;4.40;;;;;;;13.97;54.77;101259.94;4917994;28;102101;-64
2021/03/18 11:34:59;;;;;;;5.07;4.40;;;;;;;13.88;55.34;101252.63;4917820;28;98622;-64
2021/03/18 11:37:26;;;;;;;4.32;3.78;;;;;;;13.96;55.00;101249.38;4909693;28;113685;-59
2021/03/18 11:39:52;;;;;;;4.10;3.70;;;;;;;13.85;55.51;101235.00;4916336;28;102444;-60
2021/03/18 11:42:18;;;;;;;4.35;3.95;;;;;;;13.71;55.67;101239.31;4918128;28;98773;-64
2021/03/18 11:44:44;;;;;;;4.57;3.50;;;;;;;13.49;56.55;101234.97;4916952;28;127551;-63